sensor_id;sensor_type;location;lat;lon;timestamp;pressure;altitude;pressure_sealevel;temperature;humidity
73297;BME280;61524;50.938;11.396;2022-10-17T00:00:36;99567.00;;;10.06;100.00
73297;BME280;61524;50.938;11.396;2022-10-17T00:03:01;99572.81;;;10.03;100.00
73297;BME280;61524;50.938;11.396;2022-10-17T00:05:27;99563.19;;;10.02;100.00
73297;BME280;61524;50.938;11.396;2022-10-17T00:07:53;99568.63;;;9.95;100.00
73297;BME280;61524;50.938;11.396;2022-10-17T00:10:19;99564.28;;;9.83;100.00
73297;BME280;61524;50.938;11.396;2022-10-17T00:12:45;99572.53;;;9.81;100.00
73297;BME280;61524;50.938;11.396;2022-10-17T00:15:15;99576.94;;;9.87;100.00
73297;BME280;61524;50.938;11.396;2022-10-17T00:17:41;99584.25;;;9.80;100.00
73297;BME280;61524;50.938;11.396;2022-10-17T00:20:07;99585.06;;;9.81;100.00
73297;BME280;61524;50.938;11.396;2022-10-17T00:22:32;99575.56;;;9.85;100.00
73297;BME280;61524;50.938;11.396;2022-10-17T00:24:58;99581.09;;;9.83;100.00
73297;BME280;61524;50.938;11.396;2022-10-17T00:27:23;99583.44;;;9.80;100.00
73297;BME280;61524;50.938;11.396;2022-10-17T00:29:50;99577.06;;;9.81;100.00
73297;BME280;61524;50.938;11.396;2022-10-17T00:32:16;99588.53;;;9.81;100.00
73297;BME280;61524;50.938;11.396;2022-10-17T00:34:41;99579.13;;;9.79;100.00
73297;BME280;61524;50.938;11.396;2022-10-17T00:37:07;99569.03;;;9.69;100.00
73297;BME280;61524;50.938;11.396;2022-10-17T00:39:32;99559.75;;;9.71;100.00
73297;BME280;61524;50.938;11.396;2022-10-17T00:41:58;99555.56;;;9.76;100.00
73297;BME280;61524;50.938;11.396;2022-10-17T00:47:01;99562.41;;;9.71;100.00
73297;BME280;61524;50.938;11.396;2022-10-17T00:49:29;99556.25;;;9.71;100.00
73297;BME280;61524;50.938;11.396;2022-10-17T00:51:58;99561.22;;;9.67;100.00
73297;BME280;61524;50.938;11.396;2022-10-17T00:54:28;99552.28;;;9.62;100.00
73297;BME280;61524;50.938;11.396;2022-10-17T00:56:55;99564.81;;;9.61;100.00
73297;BME280;61524;50.938;11.396;2022-10-17T00:59:22;99554.34;;;9.48;100.00
73297;BME280;61524;50.938;11.396;2022-10-17T01:02:07;99562.34;;;9.48;100.00
73297;BME280;61524;50.938;11.396;2022-10-17T01:04:35;99551.66;;;9.48;100.00
73297;BME280;61524;50.938;11.396;2022-10-17T01:07:01;99568.59;;;9.42;100.00
73297;BME280;61524;50.938;11.396;2022-10-17T01:09:26;99570.19;;;9.43;100.00
73297;BME280;61524;50.938;11.396;2022-10-17T01:15:03;99561.94;;;9.33;100.00
73297;BME280;61524;50.938;11.396;2022-10-17T01:26:32;99550.06;;;9.29;100.00
73297;BME280;61524;50.938;11.396;2022-10-17T01:32:23;99560.44;;;9.37;100.00
73297;BME280;61524;50.938;11.396;2022-10-17T01:34:58;99564.72;;;9.38;100.00
73297;BME280;61524;50.938;11.396;2022-10-17T01:37:31;99557.41;;;9.33;100.00
73297;BME280;61524;50.938;11.396;2022-10-17T01:40:08;99555.97;;;9.31;100.00
73297;BME280;61524;50.938;11.396;2022-10-17T01:47:45;99583.41;;;9.19;100.00
73297;BME280;61524;50.938;11.396;2022-10-17T01:50:23;99578.16;;;9.13;100.00
73297;BME280;61524;50.938;11.396;2022-10-17T01:52:52;99580.81;;;9.13;100.00
73297;BME280;61524;50.938;11.396;2022-10-17T01:55:26;99582.44;;;9.14;100.00
73297;BME280;61524;50.938;11.396;2022-10-17T01:58:00;99589.63;;;9.13;100.00
73297;BME280;61524;50.938;11.396;2022-10-17T02:00:28;99582.31;;;9.09;100.00
73297;BME280;61524;50.938;11.396;2022-10-17T02:02:59;99583.81;;;9.05;100.00
73297;BME280;61524;50.938;11.396;2022-10-17T02:05:29;99575.44;;;9.01;100.00
73297;BME280;61524;50.938;11.396;2022-10-17T02:07:56;99575.72;;;8.93;100.00
73297;BME280;61524;50.938;11.396;2022-10-17T02:13:35;99570.13;;;8.83;100.00
73297;BME280;61524;50.938;11.396;2022-10-17T02:21:44;99564.63;;;8.96;100.00
73297;BME280;61524;50.938;11.396;2022-10-17T02:24:37;99568.91;;;8.97;100.00
73297;BME280;61524;50.938;11.396;2022-10-17T02:29:50;99587.50;;;9.04;100.00
73297;BME280;61524;50.938;11.396;2022-10-17T02:32:23;99574.53;;;9.07;100.00
73297;BME280;61524;50.938;11.396;2022-10-17T02:34:54;99579.28;;;9.05;100.00
73297;BME280;61524;50.938;11.396;2022-10-17T02:37:24;99575.66;;;9.00;100.00
73297;BME280;61524;50.938;11.396;2022-10-17T02:39:53;99573.81;;;9.00;100.00
73297;BME280;61524;50.938;11.396;2022-10-17T02:42:21;99575.88;;;8.98;100.00
73297;BME280;61524;50.938;11.396;2022-10-17T02:44:48;99583.34;;;9.08;100.00
73297;BME280;61524;50.938;11.396;2022-10-17T02:49:57;99600.69;;;8.99;100.00
73297;BME280;61524;50.938;11.396;2022-10-17T02:52:28;99583.44;;;9.01;100.00
73297;BME280;61524;50.938;11.396;2022-10-17T02:55:16;99581.44;;;8.78;100.00
73297;BME280;61524;50.938;11.396;2022-10-17T03:00:15;99598.31;;;8.72;100.00
73297;BME280;61524;50.938;11.396;2022-10-17T03:02:44;99610.19;;;8.70;100.00
73297;BME280;61524;50.938;11.396;2022-10-17T03:05:13;99598.34;;;8.65;100.00
73297;BME280;61524;50.938;11.396;2022-10-17T03:07:39;99607.53;;;8.70;100.00
73297;BME280;61524;50.938;11.396;2022-10-17T03:10:05;99602.66;;;8.66;100.00
73297;BME280;61524;50.938;11.396;2022-10-17T03:12:30;99606.19;;;8.60;100.00
73297;BME280;61524;50.938;11.396;2022-10-17T03:14:56;99610.50;;;8.61;100.00
73297;BME280;61524;50.938;11.396;2022-10-17T03:17:21;99614.47;;;8.52;100.00
73297;BME280;61524;50.938;11.396;2022-10-17T03:19:47;99618.22;;;8.45;100.00
73297;BME280;61524;50.938;11.396;2022-10-17T03:22:12;99609.25;;;8.39;100.00
73297;BME280;61524;50.938;11.396;2022-10-17T03:24:38;99621.72;;;8.45;100.00
73297;BME280;61524;50.938;11.396;2022-10-17T03:27:03;99621.25;;;8.48;100.00
73297;BME280;61524;50.938;11.396;2022-10-17T03:29:29;99617.78;;;8.48;100.00
73297;BME280;61524;50.938;11.396;2022-10-17T03:31:54;99615.19;;;8.41;100.00
73297;BME280;61524;50.938;11.396;2022-10-17T03:34:20;99616.38;;;8.45;100.00
73297;BME280;61524;50.938;11.396;2022-10-17T03:36:45;99627.47;;;8.42;100.00
73297;BME280;61524;50.938;11.396;2022-10-17T03:39:11;99641.66;;;8.36;100.00
73297;BME280;61524;50.938;11.396;2022-10-17T03:41:37;99626.66;;;8.41;100.00
73297;BME280;61524;50.938;11.396;2022-10-17T03:44:02;99621.97;;;8.37;100.00
73297;BME280;61524;50.938;11.396;2022-10-17T03:46:28;99634.06;;;8.39;100.00
73297;BME280;61524;50.938;11.396;2022-10-17T03:48:53;99636.34;;;8.54;100.00
73297;BME280;61524;50.938;11.396;2022-10-17T03:51:19;99634.34;;;8.50;100.00
73297;BME280;61524;50.938;11.396;2022-10-17T03:53:44;99640.06;;;8.53;100.00
73297;BME280;61524;50.938;11.396;2022-10-17T03:56:18;99642.31;;;8.56;100.00
73297;BME280;61524;50.938;11.396;2022-10-17T03:58:44;99632.66;;;8.55;100.00
73297;BME280;61524;50.938;11.396;2022-10-17T04:01:11;99640.81;;;8.60;100.00
73297;BME280;61524;50.938;11.396;2022-10-17T04:03:38;99643.63;;;8.65;100.00
73297;BME280;61524;50.938;11.396;2022-10-17T04:06:04;99642.09;;;8.76;100.00
73297;BME280;61524;50.938;11.396;2022-10-17T04:08:30;99647.06;;;8.73;100.00
73297;BME280;61524;50.938;11.396;2022-10-17T04:11:00;99651.03;;;8.63;100.00
73297;BME280;61524;50.938;11.396;2022-10-17T04:13:27;99641.25;;;8.57;100.00
73297;BME280;61524;50.938;11.396;2022-10-17T04:15:59;99647.81;;;8.55;100.00
73297;BME280;61524;50.938;11.396;2022-10-17T04:18:25;99655.00;;;8.54;100.00
73297;BME280;61524;50.938;11.396;2022-10-17T04:20:51;99652.41;;;8.48;100.00
73297;BME280;61524;50.938;11.396;2022-10-17T04:23:17;99643.84;;;8.46;100.00
73297;BME280;61524;50.938;11.396;2022-10-17T04:25:43;99654.25;;;8.47;100.00
73297;BME280;61524;50.938;11.396;2022-10-17T04:28:08;99651.00;;;8.45;100.00
73297;BME280;61524;50.938;11.396;2022-10-17T04:30:34;99652.69;;;8.39;100.00
73297;BME280;61524;50.938;11.396;2022-10-17T04:32:59;99652.00;;;8.44;100.00
73297;BME280;61524;50.938;11.396;2022-10-17T04:35:25;99658.13;;;8.51;100.00
73297;BME280;61524;50.938;11.396;2022-10-17T04:37:50;99659.97;;;8.51;100.00
73297;BME280;61524;50.938;11.396;2022-10-17T04:40:16;99657.91;;;8.53;100.00
73297;BME280;61524;50.938;11.396;2022-10-17T04:42:41;99658.47;;;8.55;100.00
73297;BME280;61524;50.938;11.396;2022-10-17T04:45:07;99653.44;;;8.47;100.00
73297;BME280;61524;50.938;11.396;2022-10-17T04:47:32;99649.69;;;8.54;100.00
73297;BME280;61524;50.938;11.396;2022-10-17T04:49:58;99648.63;;;8.55;100.00
73297;BME280;61524;50.938;11.396;2022-10-17T04:52:24;99655.41;;;8.58;100.00
73297;BME280;61524;50.938;11.396;2022-10-17T04:54:50;99647.25;;;8.53;100.00
73297;BME280;61524;50.938;11.396;2022-10-17T04:57:16;99649.03;;;8.59;100.00
73297;BME280;61524;50.938;11.396;2022-10-17T04:59:41;99652.00;;;8.69;100.00
73297;BME280;61524;50.938;11.396;2022-10-17T05:02:07;99641.03;;;8.59;100.00
73297;BME280;61524;50.938;11.396;2022-10-17T05:04:32;99652.16;;;8.56;100.00
73297;BME280;61524;50.938;11.396;2022-10-17T05:06:58;99637.19;;;8.55;100.00
73297;BME280;61524;50.938;11.396;2022-10-17T05:09:23;99647.47;;;8.51;100.00
73297;BME280;61524;50.938;11.396;2022-10-17T05:11:49;99636.81;;;8.51;100.00
73297;BME280;61524;50.938;11.396;2022-10-17T05:14:14;99638.06;;;8.49;100.00
73297;BME280;61524;50.938;11.396;2022-10-17T05:16:40;99630.28;;;8.47;100.00
73297;BME280;61524;50.938;11.396;2022-10-17T05:19:05;99641.34;;;8.51;100.00
73297;BME280;61524;50.938;11.396;2022-10-17T05:21:31;99630.44;;;8.52;100.00
73297;BME280;61524;50.938;11.396;2022-10-17T05:23:57;99632.56;;;8.44;100.00
73297;BME280;61524;50.938;11.396;2022-10-17T05:26:23;99638.44;;;8.52;100.00
73297;BME280;61524;50.938;11.396;2022-10-17T05:28:49;99645.56;;;8.58;100.00
73297;BME280;61524;50.938;11.396;2022-10-17T05:31:16;99639.19;;;8.59;100.00
73297;BME280;61524;50.938;11.396;2022-10-17T05:33:42;99652.81;;;8.70;100.00
73297;BME280;61524;50.938;11.396;2022-10-17T05:36:08;99644.84;;;8.70;100.00
73297;BME280;61524;50.938;11.396;2022-10-17T05:38:33;99652.03;;;8.87;100.00
73297;BME280;61524;50.938;11.396;2022-10-17T05:41:04;99651.34;;;8.99;100.00
73297;BME280;61524;50.938;11.396;2022-10-17T05:43:30;99644.72;;;9.01;100.00
73297;BME280;61524;50.938;11.396;2022-10-17T05:45:56;99656.28;;;8.95;100.00
73297;BME280;61524;50.938;11.396;2022-10-17T05:48:23;99661.31;;;9.03;100.00
73297;BME280;61524;50.938;11.396;2022-10-17T05:50:59;99668.78;;;9.13;100.00
73297;BME280;61524;50.938;11.396;2022-10-17T05:53:29;99680.88;;;9.15;100.00
73297;BME280;61524;50.938;11.396;2022-10-17T05:55:58;99687.38;;;9.19;100.00
73297;BME280;61524;50.938;11.396;2022-10-17T05:58:24;99684.88;;;9.25;100.00
73297;BME280;61524;50.938;11.396;2022-10-17T06:00:50;99697.75;;;9.28;100.00
73297;BME280;61524;50.938;11.396;2022-10-17T06:03:15;99699.78;;;9.32;100.00
73297;BME280;61524;50.938;11.396;2022-10-17T06:05:41;99703.84;;;9.35;100.00
73297;BME280;61524;50.938;11.396;2022-10-17T06:08:06;99711.75;;;9.41;100.00
73297;BME280;61524;50.938;11.396;2022-10-17T06:10:32;99707.03;;;9.43;100.00
73297;BME280;61524;50.938;11.396;2022-10-17T06:12:57;99708.81;;;9.50;100.00
73297;BME280;61524;50.938;11.396;2022-10-17T06:15:23;99704.66;;;9.54;100.00
73297;BME280;61524;50.938;11.396;2022-10-17T06:17:48;99711.25;;;9.69;100.00
73297;BME280;61524;50.938;11.396;2022-10-17T06:20:14;99707.00;;;9.80;100.00
73297;BME280;61524;50.938;11.396;2022-10-17T06:22:39;99712.38;;;9.92;100.00
73297;BME280;61524;50.938;11.396;2022-10-17T06:25:05;99702.19;;;10.00;100.00
73297;BME280;61524;50.938;11.396;2022-10-17T06:27:30;99712.94;;;10.12;100.00
73297;BME280;61524;50.938;11.396;2022-10-17T06:29:56;99711.16;;;10.24;100.00
73297;BME280;61524;50.938;11.396;2022-10-17T06:32:21;99703.28;;;10.30;100.00
73297;BME280;61524;50.938;11.396;2022-10-17T06:34:47;99717.94;;;10.39;100.00
73297;BME280;61524;50.938;11.396;2022-10-17T06:37:12;99711.00;;;10.61;100.00
73297;BME280;61524;50.938;11.396;2022-10-17T06:39:38;99703.31;;;11.35;100.00
73297;BME280;61524;50.938;11.396;2022-10-17T06:42:03;99704.66;;;11.61;100.00
73297;BME280;61524;50.938;11.396;2022-10-17T06:44:29;99714.06;;;11.87;100.00
73297;BME280;61524;50.938;11.396;2022-10-17T06:46:59;99712.09;;;11.82;100.00
73297;BME280;61524;50.938;11.396;2022-10-17T06:49:26;99719.25;;;11.94;100.00
73297;BME280;61524;50.938;11.396;2022-10-17T06:51:53;99719.59;;;11.97;100.00
73297;BME280;61524;50.938;11.396;2022-10-17T06:54:18;99715.34;;;12.13;100.00
73297;BME280;61524;50.938;11.396;2022-10-17T06:56:44;99726.63;;;12.15;100.00
73297;BME280;61524;50.938;11.396;2022-10-17T06:59:09;99727.53;;;12.21;100.00
73297;BME280;61524;50.938;11.396;2022-10-17T07:01:35;99734.13;;;12.30;100.00
73297;BME280;61524;50.938;11.396;2022-10-17T07:04:01;99732.38;;;12.07;100.00
73297;BME280;61524;50.938;11.396;2022-10-17T07:06:26;99733.59;;;11.88;100.00
73297;BME280;61524;50.938;11.396;2022-10-17T07:08:52;99746.69;;;11.84;100.00
73297;BME280;61524;50.938;11.396;2022-10-17T07:11:20;99739.66;;;11.95;100.00
73297;BME280;61524;50.938;11.396;2022-10-17T07:13:46;99747.19;;;11.98;100.00
73297;BME280;61524;50.938;11.396;2022-10-17T07:16:13;99744.19;;;12.23;100.00
73297;BME280;61524;50.938;11.396;2022-10-17T07:18:39;99752.69;;;12.48;100.00
73297;BME280;61524;50.938;11.396;2022-10-17T07:21:05;99737.94;;;12.63;100.00
73297;BME280;61524;50.938;11.396;2022-10-17T07:23:33;99744.78;;;12.70;100.00
73297;BME280;61524;50.938;11.396;2022-10-17T07:26:03;99748.25;;;12.71;100.00
73297;BME280;61524;50.938;11.396;2022-10-17T07:28:33;99751.13;;;12.81;100.00
73297;BME280;61524;50.938;11.396;2022-10-17T07:31:10;99740.94;;;13.00;100.00
73297;BME280;61524;50.938;11.396;2022-10-17T07:33:36;99751.97;;;13.20;100.00
73297;BME280;61524;50.938;11.396;2022-10-17T07:36:03;99759.56;;;13.62;100.00
73297;BME280;61524;50.938;11.396;2022-10-17T07:38:29;99752.81;;;13.81;100.00
73297;BME280;61524;50.938;11.396;2022-10-17T07:40:59;99764.50;;;13.92;100.00
73297;BME280;61524;50.938;11.396;2022-10-17T07:43:25;99766.19;;;13.98;100.00
73297;BME280;61524;50.938;11.396;2022-10-17T07:45:52;99774.19;;;13.93;100.00
73297;BME280;61524;50.938;11.396;2022-10-17T07:48:18;99763.44;;;13.93;100.00
73297;BME280;61524;50.938;11.396;2022-10-17T07:50:44;99765.19;;;14.04;100.00
73297;BME280;61524;50.938;11.396;2022-10-17T07:53:09;99759.53;;;14.28;100.00
73297;BME280;61524;50.938;11.396;2022-10-17T07:55:39;99770.31;;;14.55;99.98
73297;BME280;61524;50.938;11.396;2022-10-17T07:58:05;99775.03;;;14.69;100.00
73297;BME280;61524;50.938;11.396;2022-10-17T08:00:31;99766.88;;;14.91;99.98
73297;BME280;61524;50.938;11.396;2022-10-17T08:02:56;99772.75;;;15.20;98.86
73297;BME280;61524;50.938;11.396;2022-10-17T08:05:22;99785.06;;;15.54;97.89
73297;BME280;61524;50.938;11.396;2022-10-17T08:07:47;99765.31;;;15.85;96.93
73297;BME280;61524;50.938;11.396;2022-10-17T08:10:14;99758.66;;;16.08;96.64
73297;BME280;61524;50.938;11.396;2022-10-17T08:12:39;99756.59;;;16.51;93.31
73297;BME280;61524;50.938;11.396;2022-10-17T08:15:06;99757.47;;;16.82;90.87
73297;BME280;61524;50.938;11.396;2022-10-17T08:17:34;99749.38;;;16.97;92.17
73297;BME280;61524;50.938;11.396;2022-10-17T08:19:59;99747.72;;;17.22;91.05
73297;BME280;61524;50.938;11.396;2022-10-17T08:22:25;99753.84;;;17.53;87.05
73297;BME280;61524;50.938;11.396;2022-10-17T08:24:50;99752.50;;;17.76;85.41
73297;BME280;61524;50.938;11.396;2022-10-17T08:27:15;99757.56;;;17.93;87.34
73297;BME280;61524;50.938;11.396;2022-10-17T08:29:47;99751.84;;;17.94;87.55
73297;BME280;61524;50.938;11.396;2022-10-17T08:32:18;99748.91;;;17.86;85.88
73297;BME280;61524;50.938;11.396;2022-10-17T08:34:43;99753.44;;;18.00;84.99
73297;BME280;61524;50.938;11.396;2022-10-17T08:37:09;99759.13;;;17.99;85.61
73297;BME280;61524;50.938;11.396;2022-10-17T08:39:34;99760.41;;;18.17;83.45
73297;BME280;61524;50.938;11.396;2022-10-17T08:45:11;99766.00;;;18.35;82.21
73297;BME280;61524;50.938;11.396;2022-10-17T08:48:03;99768.88;;;18.44;81.81
73297;BME280;61524;50.938;11.396;2022-10-17T08:50:45;99756.38;;;18.53;80.98
73297;BME280;61524;50.938;11.396;2022-10-17T08:56:04;99757.69;;;18.61;81.50
73297;BME280;61524;50.938;11.396;2022-10-17T08:58:33;99755.22;;;18.70;81.19
73297;BME280;61524;50.938;11.396;2022-10-17T09:06:38;99778.81;;;18.98;79.02
73297;BME280;61524;50.938;11.396;2022-10-17T09:09:24;99774.53;;;18.92;79.80
73297;BME280;61524;50.938;11.396;2022-10-17T09:22:43;99759.88;;;19.27;78.63
73297;BME280;61524;50.938;11.396;2022-10-17T09:25:13;99753.53;;;19.37;77.86
73297;BME280;61524;50.938;11.396;2022-10-17T09:27:43;99766.63;;;19.59;76.64
73297;BME280;61524;50.938;11.396;2022-10-17T09:32:54;99754.66;;;19.84;74.20
73297;BME280;61524;50.938;11.396;2022-10-17T09:35:21;99761.13;;;20.07;73.80
73297;BME280;61524;50.938;11.396;2022-10-17T09:37:47;99756.69;;;20.16;74.21
73297;BME280;61524;50.938;11.396;2022-10-17T09:40:20;99752.44;;;20.29;72.56
73297;BME280;61524;50.938;11.396;2022-10-17T09:42:49;99764.53;;;20.36;72.80
73297;BME280;61524;50.938;11.396;2022-10-17T09:45:19;99758.53;;;20.39;72.02
73297;BME280;61524;50.938;11.396;2022-10-17T09:50:26;99756.47;;;20.50;71.52
73297;BME280;61524;50.938;11.396;2022-10-17T09:52:53;99754.00;;;20.54;71.16
73297;BME280;61524;50.938;11.396;2022-10-17T09:56:12;99752.88;;;20.74;71.20
73297;BME280;61524;50.938;11.396;2022-10-17T09:58:19;99736.34;;;20.89;70.46
73297;BME280;61524;50.938;11.396;2022-10-17T10:00:46;99737.78;;;21.00;70.20
73297;BME280;61524;50.938;11.396;2022-10-17T10:03:18;99745.53;;;21.07;69.53
73297;BME280;61524;50.938;11.396;2022-10-17T10:06:10;99747.94;;;21.08;70.51
73297;BME280;61524;50.938;11.396;2022-10-17T10:08:56;99746.50;;;21.30;68.99
73297;BME280;61524;50.938;11.396;2022-10-17T10:11:49;99749.94;;;21.35;67.72
73297;BME280;61524;50.938;11.396;2022-10-17T10:16:54;99751.25;;;21.38;68.24
73297;BME280;61524;50.938;11.396;2022-10-17T10:19:36;99749.56;;;21.56;68.20
73297;BME280;61524;50.938;11.396;2022-10-17T10:22:16;99751.66;;;21.45;67.50
73297;BME280;61524;50.938;11.396;2022-10-17T10:24:41;99740.97;;;21.62;65.88
73297;BME280;61524;50.938;11.396;2022-10-17T10:27:13;99754.28;;;21.78;65.32
73297;BME280;61524;50.938;11.396;2022-10-17T10:29:41;99747.34;;;21.71;65.86
73297;BME280;61524;50.938;11.396;2022-10-17T10:32:22;99751.25;;;21.79;65.93
73297;BME280;61524;50.938;11.396;2022-10-17T10:34:49;99750.53;;;21.73;65.42
73297;BME280;61524;50.938;11.396;2022-10-17T10:37:34;99738.47;;;21.80;65.75
73297;BME280;61524;50.938;11.396;2022-10-17T10:40:05;99756.09;;;21.96;65.36
73297;BME280;61524;50.938;11.396;2022-10-17T10:42:38;99744.91;;;21.97;64.54
73297;BME280;61524;50.938;11.396;2022-10-17T10:45:17;99745.59;;;22.03;65.02
73297;BME280;61524;50.938;11.396;2022-10-17T10:47:59;99742.06;;;22.02;64.93
73297;BME280;61524;50.938;11.396;2022-10-17T10:50:33;99735.72;;;22.07;63.70
73297;BME280;61524;50.938;11.396;2022-10-17T10:55:52;99735.19;;;22.05;64.17
73297;BME280;61524;50.938;11.396;2022-10-17T11:00:51;99729.22;;;22.31;63.09
73297;BME280;61524;50.938;11.396;2022-10-17T11:03:25;99731.72;;;22.41;62.11
73297;BME280;61524;50.938;11.396;2022-10-17T11:06:18;99728.00;;;22.37;62.61
73297;BME280;61524;50.938;11.396;2022-10-17T11:08:51;99715.84;;;22.43;64.48
73297;BME280;61524;50.938;11.396;2022-10-17T11:11:39;99725.47;;;22.40;62.12
73297;BME280;61524;50.938;11.396;2022-10-17T11:14:17;99722.88;;;22.21;63.46
73297;BME280;61524;50.938;11.396;2022-10-17T11:16:53;99716.16;;;22.19;64.00
73297;BME280;61524;50.938;11.396;2022-10-17T11:19:26;99720.69;;;22.23;63.58
73297;BME280;61524;50.938;11.396;2022-10-17T11:22:32;99719.88;;;22.23;63.80
73297;BME280;61524;50.938;11.396;2022-10-17T11:27:36;99716.06;;;22.10;63.52
73297;BME280;61524;50.938;11.396;2022-10-17T11:30:02;99732.28;;;22.15;64.24
73297;BME280;61524;50.938;11.396;2022-10-17T11:32:49;99726.03;;;22.15;64.04
73297;BME280;61524;50.938;11.396;2022-10-17T11:35:22;99731.66;;;22.05;63.45
73297;BME280;61524;50.938;11.396;2022-10-17T11:37:54;99735.50;;;22.04;64.00
73297;BME280;61524;50.938;11.396;2022-10-17T11:40:30;99726.16;;;21.96;64.83
73297;BME280;61524;50.938;11.396;2022-10-17T11:43:04;99739.13;;;21.99;64.55
73297;BME280;61524;50.938;11.396;2022-10-17T11:45:34;99732.69;;;21.95;66.00
73297;BME280;61524;50.938;11.396;2022-10-17T11:48:05;99726.19;;;22.32;64.86
73297;BME280;61524;50.938;11.396;2022-10-17T11:50:36;99720.25;;;22.52;64.45
73297;BME280;61524;50.938;11.396;2022-10-17T11:53:07;99723.75;;;22.67;63.40
73297;BME280;61524;50.938;11.396;2022-10-17T11:55:34;99715.94;;;22.74;63.67
73297;BME280;61524;50.938;11.396;2022-10-17T11:58:38;99714.81;;;22.75;63.14
73297;BME280;61524;50.938;11.396;2022-10-17T12:12:05;99709.47;;;22.70;63.12
73297;BME280;61524;50.938;11.396;2022-10-17T12:14:44;99710.81;;;22.72;64.16
73297;BME280;61524;50.938;11.396;2022-10-17T12:17:32;99706.69;;;22.84;62.67
73297;BME280;61524;50.938;11.396;2022-10-17T12:22:58;99710.84;;;22.81;62.10
73297;BME280;61524;50.938;11.396;2022-10-17T12:25:32;99712.53;;;22.68;61.72
73297;BME280;61524;50.938;11.396;2022-10-17T12:28:11;99708.69;;;22.69;62.06
73297;BME280;61524;50.938;11.396;2022-10-17T12:46:56;99709.09;;;22.85;60.68
73297;BME280;61524;50.938;11.396;2022-10-17T13:02:43;99711.28;;;22.97;59.65
73297;BME280;61524;50.938;11.396;2022-10-17T13:05:23;99710.00;;;22.94;59.60
73297;BME280;61524;50.938;11.396;2022-10-17T13:07:50;99707.97;;;22.86;60.28
73297;BME280;61524;50.938;11.396;2022-10-17T13:10:31;99716.94;;;22.78;60.55
73297;BME280;61524;50.938;11.396;2022-10-17T13:13:37;99711.34;;;22.83;60.46
73297;BME280;61524;50.938;11.396;2022-10-17T13:16:00;99709.44;;;22.84;59.90
73297;BME280;61524;50.938;11.396;2022-10-17T13:18:27;99708.06;;;22.72;60.53
73297;BME280;61524;50.938;11.396;2022-10-17T13:21:05;99708.22;;;22.45;61.60
73297;BME280;61524;50.938;11.396;2022-10-17T13:23:35;99704.00;;;22.39;61.50
73297;BME280;61524;50.938;11.396;2022-10-17T13:28:30;99719.41;;;22.66;60.10
73297;BME280;61524;50.938;11.396;2022-10-17T13:30:56;99716.72;;;22.74;59.97
73297;BME280;61524;50.938;11.396;2022-10-17T13:33:30;99715.75;;;22.70;59.10
73297;BME280;61524;50.938;11.396;2022-10-17T13:35:56;99714.94;;;22.70;59.89
73297;BME280;61524;50.938;11.396;2022-10-17T13:38:25;99715.81;;;22.79;58.71
73297;BME280;61524;50.938;11.396;2022-10-17T13:40:52;99712.41;;;22.73;59.48
73297;BME280;61524;50.938;11.396;2022-10-17T13:43:19;99719.13;;;22.76;59.79
73297;BME280;61524;50.938;11.396;2022-10-17T13:45:50;99725.41;;;22.76;59.67
73297;BME280;61524;50.938;11.396;2022-10-17T13:48:27;99719.28;;;22.71;60.54
73297;BME280;61524;50.938;11.396;2022-10-17T13:50:56;99720.44;;;22.78;59.88
73297;BME280;61524;50.938;11.396;2022-10-17T13:53:36;99726.50;;;22.75;60.54
73297;BME280;61524;50.938;11.396;2022-10-17T13:56:20;99728.94;;;22.77;60.10
73297;BME280;61524;50.938;11.396;2022-10-17T13:58:50;99726.38;;;22.80;59.51
73297;BME280;61524;50.938;11.396;2022-10-17T14:01:17;99725.13;;;22.87;56.83
73297;BME280;61524;50.938;11.396;2022-10-17T14:03:44;99719.91;;;22.90;55.75
73297;BME280;61524;50.938;11.396;2022-10-17T14:06:16;99724.41;;;22.72;55.89
73297;BME280;61524;50.938;11.396;2022-10-17T14:11:37;99733.22;;;22.33;56.76
73297;BME280;61524;50.938;11.396;2022-10-17T14:14:06;99730.50;;;22.33;57.06
73297;BME280;61524;50.938;11.396;2022-10-17T14:16:41;99740.13;;;22.17;58.05
73297;BME280;61524;50.938;11.396;2022-10-17T14:19:33;99736.22;;;22.23;57.45
73297;BME280;61524;50.938;11.396;2022-10-17T14:24:44;99750.25;;;22.02;57.83
73297;BME280;61524;50.938;11.396;2022-10-17T14:29:54;99744.91;;;21.97;58.90
73297;BME280;61524;50.938;11.396;2022-10-17T14:32:22;99751.63;;;22.00;58.89
73297;BME280;61524;50.938;11.396;2022-10-17T14:34:52;99744.69;;;21.94;58.03
73297;BME280;61524;50.938;11.396;2022-10-17T14:40:04;99738.41;;;22.21;55.73
73297;BME280;61524;50.938;11.396;2022-10-17T14:42:30;99748.19;;;22.22;55.74
73297;BME280;61524;50.938;11.396;2022-10-17T14:45:05;99745.28;;;22.05;57.14
73297;BME280;61524;50.938;11.396;2022-10-17T14:47:31;99744.38;;;21.95;57.47
73297;BME280;61524;50.938;11.396;2022-10-17T14:50:20;99735.03;;;21.88;57.81
73297;BME280;61524;50.938;11.396;2022-10-17T14:55:33;99739.19;;;21.85;57.94
73297;BME280;61524;50.938;11.396;2022-10-17T14:57:59;99746.22;;;21.72;58.77
73297;BME280;61524;50.938;11.396;2022-10-17T15:00:25;99742.22;;;21.70;57.86
73297;BME280;61524;50.938;11.396;2022-10-17T15:02:53;99744.00;;;21.61;58.57
73297;BME280;61524;50.938;11.396;2022-10-17T15:05:19;99744.13;;;21.56;59.45
73297;BME280;61524;50.938;11.396;2022-10-17T15:07:47;99743.00;;;21.43;59.36
73297;BME280;61524;50.938;11.396;2022-10-17T15:10:27;99749.25;;;21.43;59.71
73297;BME280;61524;50.938;11.396;2022-10-17T15:12:53;99759.09;;;21.39;59.08
73297;BME280;61524;50.938;11.396;2022-10-17T15:15:18;99744.22;;;21.37;59.81
73297;BME280;61524;50.938;11.396;2022-10-17T15:17:44;99753.97;;;21.38;59.04